sensor_id;sensor_type;location;lat;lon;timestamp;temperature;humidity
20712;DHT22;10517;50.742;4.224;2023-07-29T00:01:05;19.90;99.90
20712;DHT22;10517;50.742;4.224;2023-07-29T00:03:31;19.90;99.90
20712;DHT22;10517;50.742;4.224;2023-07-29T00:05:57;19.90;99.90
20712;DHT22;10517;50.742;4.224;2023-07-29T00:08:23;19.90;99.90
20712;DHT22;10517;50.742;4.224;2023-07-29T00:10:49;19.90;99.90
20712;DHT22;10517;50.742;4.224;2023-07-29T00:13:14;19.90;99.90
20712;DHT22;10517;50.742;4.224;2023-07-29T00:15:40;19.80;99.90
20712;DHT22;10517;50.742;4.224;2023-07-29T00:18:05;19.80;99.90
20712;DHT22;10517;50.742;4.224;2023-07-29T00:20:31;19.70;99.90
20712;DHT22;10517;50.742;4.224;2023-07-29T00:22:56;19.80;99.90
20712;DHT22;10517;50.742;4.224;2023-07-29T00:25:23;19.80;99.90
20712;DHT22;10517;50.742;4.224;2023-07-29T00:27:49;19.70;99.90
20712;DHT22;10517;50.742;4.224;2023-07-29T00:30:15;19.50;99.90
20712;DHT22;10517;50.742;4.224;2023-07-29T00:32:40;19.50;99.90
20712;DHT22;10517;50.742;4.224;2023-07-29T00:35:06;19.50;99.90
20712;DHT22;10517;50.742;4.224;2023-07-29T00:37:32;19.40;99.90
20712;DHT22;10517;50.742;4.224;2023-07-29T00:39:58;19.40;99.90
20712;DHT22;10517;50.742;4.224;2023-07-29T00:42:24;19.40;99.90
20712;DHT22;10517;50.742;4.224;2023-07-29T00:44:50;19.40;99.90
20712;DHT22;10517;50.742;4.224;2023-07-29T00:47:16;19.40;99.90
20712;DHT22;10517;50.742;4.224;2023-07-29T00:49:45;19.30;99.90
20712;DHT22;10517;50.742;4.224;2023-07-29T00:52:11;19.30;99.90
20712;DHT22;10517;50.742;4.224;2023-07-29T00:54:39;19.30;99.90
20712;DHT22;10517;50.742;4.224;2023-07-29T00:57:06;19.30;99.90
20712;DHT22;10517;50.742;4.224;2023-07-29T00:59:32;19.20;99.90
20712;DHT22;10517;50.742;4.224;2023-07-29T01:01:59;19.10;99.90
20712;DHT22;10517;50.742;4.224;2023-07-29T01:04:24;19.10;99.90
20712;DHT22;10517;50.742;4.224;2023-07-29T01:15:40;18.80;99.90
20712;DHT22;10517;50.742;4.224;2023-07-29T01:18:18;18.80;99.90
20712;DHT22;10517;50.742;4.224;2023-07-29T01:20:47;18.80;99.90
20712;DHT22;10517;50.742;4.224;2023-07-29T01:23:13;18.70;99.90
20712;DHT22;10517;50.742;4.224;2023-07-29T01:25:38;18.60;99.90
20712;DHT22;10517;50.742;4.224;2023-07-29T01:28:04;18.70;99.90
20712;DHT22;10517;50.742;4.224;2023-07-29T01:30:33;18.70;99.90
20712;DHT22;10517;50.742;4.224;2023-07-29T01:33:23;18.60;99.90
20712;DHT22;10517;50.742;4.224;2023-07-29T01:36:06;18.60;99.90
20712;DHT22;10517;50.742;4.224;2023-07-29T01:38:38;18.60;99.90
20712;DHT22;10517;50.742;4.224;2023-07-29T01:41:07;18.60;99.90
20712;DHT22;10517;50.742;4.224;2023-07-29T01:43:33;18.60;99.90
20712;DHT22;10517;50.742;4.224;2023-07-29T01:46:02;18.60;99.90
20712;DHT22;10517;50.742;4.224;2023-07-29T01:48:28;18.60;99.90
20712;DHT22;10517;50.742;4.224;2023-07-29T01:50:55;18.50;99.90
20712;DHT22;10517;50.742;4.224;2023-07-29T01:53:21;18.50;99.90
20712;DHT22;10517;50.742;4.224;2023-07-29T01:55:47;18.50;99.90
20712;DHT22;10517;50.742;4.224;2023-07-29T01:58:12;18.50;99.90
20712;DHT22;10517;50.742;4.224;2023-07-29T02:00:39;18.50;99.90
20712;DHT22;10517;50.742;4.224;2023-07-29T02:03:05;18.50;99.90
20712;DHT22;10517;50.742;4.224;2023-07-29T02:05:30;18.50;99.90
20712;DHT22;10517;50.742;4.224;2023-07-29T02:07:56;18.40;99.90
20712;DHT22;10517;50.742;4.224;2023-07-29T02:10:22;18.50;99.90
20712;DHT22;10517;50.742;4.224;2023-07-29T02:12:47;18.40;99.90
20712;DHT22;10517;50.742;4.224;2023-07-29T02:15:13;18.40;99.90
20712;DHT22;10517;50.742;4.224;2023-07-29T02:17:41;18.50;99.90
20712;DHT22;10517;50.742;4.224;2023-07-29T02:20:07;18.40;99.90
20712;DHT22;10517;50.742;4.224;2023-07-29T02:22:34;18.40;99.90
20712;DHT22;10517;50.742;4.224;2023-07-29T02:24:59;18.40;99.90
20712;DHT22;10517;50.742;4.224;2023-07-29T02:27:26;18.30;99.90
20712;DHT22;10517;50.742;4.224;2023-07-29T02:29:53;18.40;99.90
20712;DHT22;10517;50.742;4.224;2023-07-29T02:32:18;18.40;99.90
20712;DHT22;10517;50.742;4.224;2023-07-29T02:34:44;18.40;99.90
20712;DHT22;10517;50.742;4.224;2023-07-29T02:37:10;18.30;99.90
20712;DHT22;10517;50.742;4.224;2023-07-29T02:39:36;18.20;99.90
20712;DHT22;10517;50.742;4.224;2023-07-29T02:42:02;18.30;99.90
20712;DHT22;10517;50.742;4.224;2023-07-29T02:44:27;18.20;99.90
20712;DHT22;10517;50.742;4.224;2023-07-29T02:46:53;18.20;99.90
20712;DHT22;10517;50.742;4.224;2023-07-29T02:49:21;18.20;99.90
20712;DHT22;10517;50.742;4.224;2023-07-29T02:51:46;18.20;99.90
20712;DHT22;10517;50.742;4.224;2023-07-29T02:54:12;18.20;99.90
20712;DHT22;10517;50.742;4.224;2023-07-29T02:56:38;18.20;99.90
20712;DHT22;10517;50.742;4.224;2023-07-29T02:59:03;18.20;99.90
20712;DHT22;10517;50.742;4.224;2023-07-29T03:01:30;18.20;99.90
20712;DHT22;10517;50.742;4.224;2023-07-29T03:03:56;18.10;99.90
20712;DHT22;10517;50.742;4.224;2023-07-29T03:06:21;18.10;99.90
20712;DHT22;10517;50.742;4.224;2023-07-29T03:08:47;18.10;99.90
20712;DHT22;10517;50.742;4.224;2023-07-29T03:11:14;18.10;99.90
20712;DHT22;10517;50.742;4.224;2023-07-29T03:13:40;18.00;99.90
20712;DHT22;10517;50.742;4.224;2023-07-29T03:16:07;18.00;99.90
20712;DHT22;10517;50.742;4.224;2023-07-29T03:18:33;18.00;99.90
20712;DHT22;10517;50.742;4.224;2023-07-29T03:20:59;17.90;99.90
20712;DHT22;10517;50.742;4.224;2023-07-29T03:23:25;17.90;99.90
20712;DHT22;10517;50.742;4.224;2023-07-29T03:25:50;18.00;99.90
20712;DHT22;10517;50.742;4.224;2023-07-29T03:28:23;17.90;99.90
20712;DHT22;10517;50.742;4.224;2023-07-29T03:30:49;17.90;99.90
20712;DHT22;10517;50.742;4.224;2023-07-29T03:33:14;17.90;99.90
20712;DHT22;10517;50.742;4.224;2023-07-29T03:35:40;17.90;99.90
20712;DHT22;10517;50.742;4.224;2023-07-29T03:38:05;17.90;99.90
20712;DHT22;10517;50.742;4.224;2023-07-29T03:40:31;17.90;99.90
20712;DHT22;10517;50.742;4.224;2023-07-29T03:42:56;18.00;99.90
20712;DHT22;10517;50.742;4.224;2023-07-29T03:45:22;18.00;99.90
20712;DHT22;10517;50.742;4.224;2023-07-29T03:47:47;17.90;99.90
20712;DHT22;10517;50.742;4.224;2023-07-29T03:50:13;18.00;99.90
20712;DHT22;10517;50.742;4.224;2023-07-29T03:52:39;18.00;99.90
20712;DHT22;10517;50.742;4.224;2023-07-29T03:55:04;18.00;99.90
20712;DHT22;10517;50.742;4.224;2023-07-29T03:57:30;18.00;99.90
20712;DHT22;10517;50.742;4.224;2023-07-29T03:59:56;18.00;99.90
20712;DHT22;10517;50.742;4.224;2023-07-29T04:02:21;18.10;99.90
20712;DHT22;10517;50.742;4.224;2023-07-29T04:04:47;18.10;99.90
20712;DHT22;10517;50.742;4.224;2023-07-29T04:07:13;18.20;99.90
20712;DHT22;10517;50.742;4.224;2023-07-29T04:09:39;18.20;99.90
20712;DHT22;10517;50.742;4.224;2023-07-29T04:12:05;18.20;99.90
20712;DHT22;10517;50.742;4.224;2023-07-29T04:14:31;18.10;99.90
20712;DHT22;10517;50.742;4.224;2023-07-29T04:16:56;18.20;99.90
20712;DHT22;10517;50.742;4.224;2023-07-29T04:19:22;18.10;99.90
20712;DHT22;10517;50.742;4.224;2023-07-29T04:21:48;18.10;99.90
20712;DHT22;10517;50.742;4.224;2023-07-29T04:24:13;18.10;99.90
20712;DHT22;10517;50.742;4.224;2023-07-29T04:26:39;18.10;99.90
20712;DHT22;10517;50.742;4.224;2023-07-29T04:29:05;18.20;99.90
20712;DHT22;10517;50.742;4.224;2023-07-29T04:31:30;18.20;99.90
20712;DHT22;10517;50.742;4.224;2023-07-29T04:33:56;18.20;99.90
20712;DHT22;10517;50.742;4.224;2023-07-29T04:36:21;18.20;99.90
20712;DHT22;10517;50.742;4.224;2023-07-29T04:38:47;18.20;99.90
20712;DHT22;10517;50.742;4.224;2023-07-29T04:41:12;18.20;99.90
20712;DHT22;10517;50.742;4.224;2023-07-29T04:43:38;18.10;99.90
20712;DHT22;10517;50.742;4.224;2023-07-29T04:46:06;18.10;99.90
20712;DHT22;10517;50.742;4.224;2023-07-29T04:48:33;18.10;99.90
20712;DHT22;10517;50.742;4.224;2023-07-29T04:50:58;18.20;99.90
20712;DHT22;10517;50.742;4.224;2023-07-29T04:53:24;18.20;99.90
20712;DHT22;10517;50.742;4.224;2023-07-29T04:55:49;18.10;99.90
20712;DHT22;10517;50.742;4.224;2023-07-29T04:58:15;18.10;99.90
20712;DHT22;10517;50.742;4.224;2023-07-29T05:00:41;18.20;99.90
20712;DHT22;10517;50.742;4.224;2023-07-29T05:03:06;18.10;99.90
20712;DHT22;10517;50.742;4.224;2023-07-29T05:05:32;18.10;99.90
20712;DHT22;10517;50.742;4.224;2023-07-29T05:07:58;18.00;99.90
20712;DHT22;10517;50.742;4.224;2023-07-29T05:10:23;17.90;99.90
20712;DHT22;10517;50.742;4.224;2023-07-29T05:12:49;18.00;99.90
20712;DHT22;10517;50.742;4.224;2023-07-29T05:15:14;17.90;99.90
20712;DHT22;10517;50.742;4.224;2023-07-29T05:17:40;18.00;99.90
20712;DHT22;10517;50.742;4.224;2023-07-29T05:20:06;18.00;99.90
20712;DHT22;10517;50.742;4.224;2023-07-29T05:22:32;18.10;99.90
20712;DHT22;10517;50.742;4.224;2023-07-29T05:24:58;18.20;99.90
20712;DHT22;10517;50.742;4.224;2023-07-29T05:27:23;18.30;99.90
20712;DHT22;10517;50.742;4.224;2023-07-29T05:29:49;18.30;99.90
20712;DHT22;10517;50.742;4.224;2023-07-29T05:32:14;18.40;99.90
20712;DHT22;10517;50.742;4.224;2023-07-29T05:34:40;18.40;99.90
20712;DHT22;10517;50.742;4.224;2023-07-29T05:37:05;18.50;99.90
20712;DHT22;10517;50.742;4.224;2023-07-29T05:39:31;18.50;99.90
20712;DHT22;10517;50.742;4.224;2023-07-29T05:41:57;18.70;99.90
20712;DHT22;10517;50.742;4.224;2023-07-29T05:44:23;18.80;99.90
20712;DHT22;10517;50.742;4.224;2023-07-29T05:46:48;18.90;99.90
20712;DHT22;10517;50.742;4.224;2023-07-29T05:49:14;19.00;99.90
20712;DHT22;10517;50.742;4.224;2023-07-29T05:51:40;19.20;99.90
20712;DHT22;10517;50.742;4.224;2023-07-29T05:54:05;19.30;99.90
20712;DHT22;10517;50.742;4.224;2023-07-29T05:56:31;19.50;99.90
20712;DHT22;10517;50.742;4.224;2023-07-29T05:58:57;19.50;99.90
20712;DHT22;10517;50.742;4.224;2023-07-29T06:01:22;19.70;99.90
20712;DHT22;10517;50.742;4.224;2023-07-29T06:03:48;19.70;99.90
20712;DHT22;10517;50.742;4.224;2023-07-29T06:06:14;19.80;99.90
20712;DHT22;10517;50.742;4.224;2023-07-29T06:08:39;19.80;99.90
20712;DHT22;10517;50.742;4.224;2023-07-29T06:11:05;19.80;99.90
20712;DHT22;10517;50.742;4.224;2023-07-29T06:13:33;20.00;99.90
20712;DHT22;10517;50.742;4.224;2023-07-29T06:15:58;20.10;99.90
20712;DHT22;10517;50.742;4.224;2023-07-29T06:18:24;20.30;99.90
20712;DHT22;10517;50.742;4.224;2023-07-29T06:20:50;20.40;99.90
20712;DHT22;10517;50.742;4.224;2023-07-29T06:23:16;20.60;99.90
20712;DHT22;10517;50.742;4.224;2023-07-29T06:25:42;20.70;99.90
20712;DHT22;10517;50.742;4.224;2023-07-29T06:28:09;20.70;99.90
20712;DHT22;10517;50.742;4.224;2023-07-29T06:30:34;20.80;99.90
20712;DHT22;10517;50.742;4.224;2023-07-29T06:33:00;20.90;99.90
20712;DHT22;10517;50.742;4.224;2023-07-29T06:35:26;21.00;99.90
20712;DHT22;10517;50.742;4.224;2023-07-29T06:37:51;21.20;99.90
20712;DHT22;10517;50.742;4.224;2023-07-29T06:40:17;21.20;99.90
20712;DHT22;10517;50.742;4.224;2023-07-29T06:42:42;21.30;99.90
20712;DHT22;10517;50.742;4.224;2023-07-29T06:45:08;21.30;99.90
20712;DHT22;10517;50.742;4.224;2023-07-29T06:47:34;21.40;99.90
20712;DHT22;10517;50.742;4.224;2023-07-29T06:49:59;21.30;99.90
20712;DHT22;10517;50.742;4.224;2023-07-29T06:52:25;21.30;99.90
20712;DHT22;10517;50.742;4.224;2023-07-29T06:54:51;21.30;99.90
20712;DHT22;10517;50.742;4.224;2023-07-29T06:57:17;21.20;99.90
20712;DHT22;10517;50.742;4.224;2023-07-29T06:59:42;21.10;99.90
20712;DHT22;10517;50.742;4.224;2023-07-29T07:02:08;21.20;99.90
20712;DHT22;10517;50.742;4.224;2023-07-29T07:04:33;21.20;99.90
20712;DHT22;10517;50.742;4.224;2023-07-29T07:06:59;21.30;99.90
20712;DHT22;10517;50.742;4.224;2023-07-29T07:09:24;21.40;99.90
20712;DHT22;10517;50.742;4.224;2023-07-29T07:11:50;21.50;99.90
20712;DHT22;10517;50.742;4.224;2023-07-29T07:14:15;21.70;99.90
20712;DHT22;10517;50.742;4.224;2023-07-29T07:16:41;21.80;99.90
20712;DHT22;10517;50.742;4.224;2023-07-29T07:19:07;21.80;99.90
20712;DHT22;10517;50.742;4.224;2023-07-29T07:21:32;21.80;99.90
20712;DHT22;10517;50.742;4.224;2023-07-29T07:23:58;21.80;99.90
20712;DHT22;10517;50.742;4.224;2023-07-29T07:26:23;21.70;99.90
20712;DHT22;10517;50.742;4.224;2023-07-29T07:28:49;21.70;99.90
20712;DHT22;10517;50.742;4.224;2023-07-29T07:31:16;21.60;99.90
20712;DHT22;10517;50.742;4.224;2023-07-29T07:33:42;21.60;99.90
20712;DHT22;10517;50.742;4.224;2023-07-29T07:36:07;21.60;99.90
20712;DHT22;10517;50.742;4.224;2023-07-29T07:38:33;21.80;99.90
20712;DHT22;10517;50.742;4.224;2023-07-29T07:40:59;22.00;99.90
20712;DHT22;10517;50.742;4.224;2023-07-29T07:43:24;22.30;99.90
20712;DHT22;10517;50.742;4.224;2023-07-29T07:45:51;22.50;99.90
20712;DHT22;10517;50.742;4.224;2023-07-29T07:48:17;22.70;99.90
20712;DHT22;10517;50.742;4.224;2023-07-29T07:50:43;22.70;99.90
20712;DHT22;10517;50.742;4.224;2023-07-29T07:53:08;22.80;99.90
20712;DHT22;10517;50.742;4.224;2023-07-29T07:55:34;22.80;99.90
20712;DHT22;10517;50.742;4.224;2023-07-29T07:58:00;22.90;99.90
20712;DHT22;10517;50.742;4.224;2023-07-29T08:00:25;22.80;99.90
20712;DHT22;10517;50.742;4.224;2023-07-29T08:02:51;22.80;99.90
20712;DHT22;10517;50.742;4.224;2023-07-29T08:05:16;22.80;99.90
20712;DHT22;10517;50.742;4.224;2023-07-29T08:07:43;22.80;99.90
20712;DHT22;10517;50.742;4.224;2023-07-29T08:10:09;23.00;99.90
20712;DHT22;10517;50.742;4.224;2023-07-29T08:12:34;23.20;99.90
20712;DHT22;10517;50.742;4.224;2023-07-29T08:15:00;23.40;99.90
20712;DHT22;10517;50.742;4.224;2023-07-29T08:17:26;23.50;99.90
20712;DHT22;10517;50.742;4.224;2023-07-29T08:19:51;23.70;99.90
20712;DHT22;10517;50.742;4.224;2023-07-29T08:22:17;23.70;99.90
20712;DHT22;10517;50.742;4.224;2023-07-29T08:24:43;23.80;99.90
20712;DHT22;10517;50.742;4.224;2023-07-29T08:27:08;23.90;99.90
20712;DHT22;10517;50.742;4.224;2023-07-29T08:29:34;23.90;99.90
20712;DHT22;10517;50.742;4.224;2023-07-29T08:31:59;23.90;99.90
20712;DHT22;10517;50.742;4.224;2023-07-29T08:34:25;23.90;99.90
20712;DHT22;10517;50.742;4.224;2023-07-29T08:36:51;23.80;99.90
20712;DHT22;10517;50.742;4.224;2023-07-29T08:39:16;23.70;99.90
20712;DHT22;10517;50.742;4.224;2023-07-29T08:42:03;23.60;99.90
20712;DHT22;10517;50.742;4.224;2023-07-29T08:44:35;23.60;99.90
20712;DHT22;10517;50.742;4.224;2023-07-29T08:47:00;23.50;99.90
20712;DHT22;10517;50.742;4.224;2023-07-29T08:49:26;23.50;99.90
20712;DHT22;10517;50.742;4.224;2023-07-29T08:51:54;23.50;99.90
20712;DHT22;10517;50.742;4.224;2023-07-29T08:54:20;23.60;99.90
20712;DHT22;10517;50.742;4.224;2023-07-29T08:56:46;23.70;99.90
20712;DHT22;10517;50.742;4.224;2023-07-29T08:59:12;23.90;99.90
20712;DHT22;10517;50.742;4.224;2023-07-29T09:01:39;24.10;99.90
20712;DHT22;10517;50.742;4.224;2023-07-29T09:04:04;24.40;99.90
20712;DHT22;10517;50.742;4.224;2023-07-29T09:06:33;24.70;99.90
20712;DHT22;10517;50.742;4.224;2023-07-29T09:09:01;25.00;99.90
20712;DHT22;10517;50.742;4.224;2023-07-29T09:11:28;25.20;99.90
20712;DHT22;10517;50.742;4.224;2023-07-29T09:13:53;25.50;99.90
20712;DHT22;10517;50.742;4.224;2023-07-29T09:16:20;25.70;99.90
20712;DHT22;10517;50.742;4.224;2023-07-29T09:18:48;25.80;99.90
20712;DHT22;10517;50.742;4.224;2023-07-29T09:21:17;26.00;99.90
20712;DHT22;10517;50.742;4.224;2023-07-29T09:23:44;26.30;99.90
20712;DHT22;10517;50.742;4.224;2023-07-29T09:26:10;26.40;99.90
20712;DHT22;10517;50.742;4.224;2023-07-29T09:28:38;26.50;99.90
20712;DHT22;10517;50.742;4.224;2023-07-29T09:31:04;26.50;99.90
20712;DHT22;10517;50.742;4.224;2023-07-29T09:33:33;26.40;99.90
20712;DHT22;10517;50.742;4.224;2023-07-29T09:36:11;26.20;99.90
20712;DHT22;10517;50.742;4.224;2023-07-29T09:38:37;26.30;99.90
20712;DHT22;10517;50.742;4.224;2023-07-29T09:41:02;26.50;99.90
20712;DHT22;10517;50.742;4.224;2023-07-29T09:43:33;26.50;99.90
20712;DHT22;10517;50.742;4.224;2023-07-29T09:46:05;26.50;99.90
20712;DHT22;10517;50.742;4.224;2023-07-29T09:48:36;26.40;99.90
20712;DHT22;10517;50.742;4.224;2023-07-29T09:51:12;26.40;99.90
20712;DHT22;10517;50.742;4.224;2023-07-29T09:53:49;26.60;99.90
20712;DHT22;10517;50.742;4.224;2023-07-29T09:56:15;26.80;99.90
20712;DHT22;10517;50.742;4.224;2023-07-29T09:58:46;26.90;99.90
20712;DHT22;10517;50.742;4.224;2023-07-29T10:01:13;26.90;99.90
20712;DHT22;10517;50.742;4.224;2023-07-29T10:03:39;26.80;99.90
20712;DHT22;10517;50.742;4.224;2023-07-29T10:06:06;26.60;99.90
20712;DHT22;10517;50.742;4.224;2023-07-29T10:08:33;26.40;99.90
20712;DHT22;10517;50.742;4.224;2023-07-29T10:11:05;26.10;99.90
20712;DHT22;10517;50.742;4.224;2023-07-29T10:13:32;25.90;99.90
20712;DHT22;10517;50.742;4.224;2023-07-29T10:15:58;25.50;99.90
20712;DHT22;10517;50.742;4.224;2023-07-29T10:18:24;25.10;99.90
20712;DHT22;10517;50.742;4.224;2023-07-29T10:20:51;24.80;99.90
20712;DHT22;10517;50.742;4.224;2023-07-29T10:23:18;24.70;99.90
20712;DHT22;10517;50.742;4.224;2023-07-29T10:26:06;24.80;99.90
20712;DHT22;10517;50.742;4.224;2023-07-29T10:28:39;24.80;99.90
20712;DHT22;10517;50.742;4.224;2023-07-29T10:31:05;24.80;99.90
20712;DHT22;10517;50.742;4.224;2023-07-29T10:33:33;24.80;99.90
20712;DHT22;10517;50.742;4.224;2023-07-29T10:35:59;24.60;99.90
20712;DHT22;10517;50.742;4.224;2023-07-29T10:38:25;24.40;99.90
20712;DHT22;10517;50.742;4.224;2023-07-29T10:40:53;24.20;99.90
20712;DHT22;10517;50.742;4.224;2023-07-29T10:43:26;24.00;99.90
20712;DHT22;10517;50.742;4.224;2023-07-29T10:45:52;23.70;99.90
20712;DHT22;10517;50.742;4.224;2023-07-29T10:51:27;22.80;99.90
20712;DHT22;10517;50.742;4.224;2023-07-29T10:53:59;22.80;99.90
20712;DHT22;10517;50.742;4.224;2023-07-29T10:56:34;22.70;99.90
20712;DHT22;10517;50.742;4.224;2023-07-29T11:01:39;22.60;99.90
20712;DHT22;10517;50.742;4.224;2023-07-29T11:20:13;21.50;99.90
20712;DHT22;10517;50.742;4.224;2023-07-29T11:22:39;21.70;99.90
20712;DHT22;10517;50.742;4.224;2023-07-29T11:25:05;22.10;99.90
20712;DHT22;10517;50.742;4.224;2023-07-29T11:27:32;22.50;99.90
20712;DHT22;10517;50.742;4.224;2023-07-29T11:29:59;22.60;99.90
20712;DHT22;10517;50.742;4.224;2023-07-29T11:32:25;22.80;99.90
20712;DHT22;10517;50.742;4.224;2023-07-29T11:34:51;23.00;99.90
20712;DHT22;10517;50.742;4.224;2023-07-29T11:37:17;23.50;99.90
20712;DHT22;10517;50.742;4.224;2023-07-29T11:39:44;23.60;99.90
20712;DHT22;10517;50.742;4.224;2023-07-29T11:42:14;24.10;99.90
20712;DHT22;10517;50.742;4.224;2023-07-29T11:44:39;24.50;99.90
20712;DHT22;10517;50.742;4.224;2023-07-29T11:47:10;25.00;99.90
20712;DHT22;10517;50.742;4.224;2023-07-29T11:49:36;25.50;99.90
20712;DHT22;10517;50.742;4.224;2023-07-29T11:52:04;25.90;99.90
20712;DHT22;10517;50.742;4.224;2023-07-29T11:54:31;26.10;99.90
20712;DHT22;10517;50.742;4.224;2023-07-29T11:56:57;26.10;99.90
20712;DHT22;10517;50.742;4.224;2023-07-29T11:59:23;26.00;99.90
20712;DHT22;10517;50.742;4.224;2023-07-29T12:01:49;25.70;99.90
20712;DHT22;10517;50.742;4.224;2023-07-29T12:04:14;25.50;99.90
20712;DHT22;10517;50.742;4.224;2023-07-29T12:06:41;25.30;99.90
20712;DHT22;10517;50.742;4.224;2023-07-29T12:09:06;25.00;99.90
20712;DHT22;10517;50.742;4.224;2023-07-29T12:11:33;24.80;99.90
20712;DHT22;10517;50.742;4.224;2023-07-29T12:14:00;23.70;99.90
20712;DHT22;10517;50.742;4.224;2023-07-29T12:16:25;22.90;99.90
20712;DHT22;10517;50.742;4.224;2023-07-29T12:18:51;22.20;99.90
20712;DHT22;10517;50.742;4.224;2023-07-29T12:21:19;21.60;99.90
20712;DHT22;10517;50.742;4.224;2023-07-29T12:23:44;21.30;99.90
20712;DHT22;10517;50.742;4.224;2023-07-29T12:26:10;21.30;99.90
20712;DHT22;10517;50.742;4.224;2023-07-29T12:28:35;21.50;99.90
20712;DHT22;10517;50.742;4.224;2023-07-29T12:31:01;21.80;99.90
20712;DHT22;10517;50.742;4.224;2023-07-29T12:33:31;22.30;99.90
20712;DHT22;10517;50.742;4.224;2023-07-29T12:35:56;22.50;99.90
20712;DHT22;10517;50.742;4.224;2023-07-29T12:38:22;22.50;99.90
20712;DHT22;10517;50.742;4.224;2023-07-29T12:40:48;23.00;99.90
20712;DHT22;10517;50.742;4.224;2023-07-29T12:43:13;23.20;99.90
20712;DHT22;10517;50.742;4.224;2023-07-29T12:45:39;23.30;99.90
20712;DHT22;10517;50.742;4.224;2023-07-29T12:48:11;23.50;99.90
20712;DHT22;10517;50.742;4.224;2023-07-29T12:50:37;23.70;99.90
20712;DHT22;10517;50.742;4.224;2023-07-29T12:53:04;23.80;99.90
20712;DHT22;10517;50.742;4.224;2023-07-29T12:55:30;23.80;99.90
20712;DHT22;10517;50.742;4.224;2023-07-29T12:57:56;24.20;99.90
20712;DHT22;10517;50.742;4.224;2023-07-29T13:00:23;24.50;99.90
20712;DHT22;10517;50.742;4.224;2023-07-29T13:02:49;24.60;99.90
20712;DHT22;10517;50.742;4.224;2023-07-29T13:05:14;25.00;99.90
20712;DHT22;10517;50.742;4.224;2023-07-29T13:07:40;25.40;99.90
20712;DHT22;10517;50.742;4.224;2023-07-29T13:10:06;26.30;99.90
20712;DHT22;10517;50.742;4.224;2023-07-29T13:12:32;26.90;99.90
20712;DHT22;10517;50.742;4.224;2023-07-29T13:14:58;27.10;99.90
20712;DHT22;10517;50.742;4.224;2023-07-29T13:17:25;27.30;99.90
20712;DHT22;10517;50.742;4.224;2023-07-29T13:19:50;27.50;99.90
20712;DHT22;10517;50.742;4.224;2023-07-29T13:22:16;27.50;99.90
20712;DHT22;10517;50.742;4.224;2023-07-29T13:24:42;27.70;99.90
20712;DHT22;10517;50.742;4.224;2023-07-29T13:27:08;28.70;99.90
20712;DHT22;10517;50.742;4.224;2023-07-29T13:29:33;29.60;99.90
20712;DHT22;10517;50.742;4.224;2023-07-29T13:31:59;30.60;99.90
20712;DHT22;10517;50.742;4.224;2023-07-29T13:34:24;31.00;99.90
20712;DHT22;10517;50.742;4.224;2023-07-29T13:36:50;30.70;99.90
20712;DHT22;10517;50.742;4.224;2023-07-29T13:39:15;30.60;99.90
20712;DHT22;10517;50.742;4.224;2023-07-29T13:41:41;29.90;99.90
20712;DHT22;10517;50.742;4.224;2023-07-29T13:44:07;30.10;99.90
20712;DHT22;10517;50.742;4.224;2023-07-29T13:46:33;30.90;99.90
20712;DHT22;10517;50.742;4.224;2023-07-29T13:48:58;30.80;99.90
20712;DHT22;10517;50.742;4.224;2023-07-29T13:51:24;30.60;99.90
20712;DHT22;10517;50.742;4.224;2023-07-29T13:53:49;30.40;99.90
20712;DHT22;10517;50.742;4.224;2023-07-29T13:56:15;30.50;99.90
20712;DHT22;10517;50.742;4.224;2023-07-29T13:58:41;31.70;99.90
20712;DHT22;10517;50.742;4.224;2023-07-29T14:01:06;33.10;99.90
20712;DHT22;10517;50.742;4.224;2023-07-29T14:03:32;33.40;99.90
20712;DHT22;10517;50.742;4.224;2023-07-29T14:05:57;34.40;99.90
20712;DHT22;10517;50.742;4.224;2023-07-29T14:08:23;34.80;99.90
20712;DHT22;10517;50.742;4.224;2023-07-29T14:10:52;34.00;99.90
20712;DHT22;10517;50.742;4.224;2023-07-29T14:13:17;32.10;99.90
20712;DHT22;10517;50.742;4.224;2023-07-29T14:15:43;31.00;99.90
20712;DHT22;10517;50.742;4.224;2023-07-29T14:18:08;30.50;99.90
20712;DHT22;10517;50.742;4.224;2023-07-29T14:20:34;30.00;99.90
20712;DHT22;10517;50.742;4.224;2023-07-29T14:22:59;29.90;99.90
20712;DHT22;10517;50.742;4.224;2023-07-29T14:25:27;30.10;99.90
20712;DHT22;10517;50.742;4.224;2023-07-29T14:27:52;29.80;99.90
20712;DHT22;10517;50.742;4.224;2023-07-29T14:30:18;29.90;99.90
20712;DHT22;10517;50.742;4.224;2023-07-29T14:32:44;30.20;99.90
20712;DHT22;10517;50.742;4.224;2023-07-29T14:35:09;30.50;99.90
20712;DHT22;10517;50.742;4.224;2023-07-29T14:37:35;31.00;99.90
20712;DHT22;10517;50.742;4.224;2023-07-29T14:40:01;31.70;99.90
20712;DHT22;10517;50.742;4.224;2023-07-29T14:42:27;33.20;99.90
20712;DHT22;10517;50.742;4.224;2023-07-29T14:44:53;34.80;99.90
20712;DHT22;10517;50.742;4.224;2023-07-29T14:47:19;34.90;99.90
20712;DHT22;10517;50.742;4.224;2023-07-29T14:49:45;33.80;99.90
20712;DHT22;10517;50.742;4.224;2023-07-29T14:52:10;32.70;99.90
20712;DHT22;10517;50.742;4.224;2023-07-29T14:54:36;32.30;99.90
20712;DHT22;10517;50.742;4.224;2023-07-29T14:57:02;32.30;99.90
20712;DHT22;10517;50.742;4.224;2023-07-29T14:59:28;31.90;99.90
20712;DHT22;10517;50.742;4.224;2023-07-29T15:01:53;31.50;99.90
20712;DHT22;10517;50.742;4.224;2023-07-29T15:04:19;31.00;99.90
20712;DHT22;10517;50.742;4.224;2023-07-29T15:06:45;31.80;99.90
20712;DHT22;10517;50.742;4.224;2023-07-29T15:09:11;32.50;99.90
20712;DHT22;10517;50.742;4.224;2023-07-29T15:11:36;33.40;99.90
20712;DHT22;10517;50.742;4.224;2023-07-29T15:14:02;34.60;99.90
20712;DHT22;10517;50.742;4.224;2023-07-29T15:16:30;34.30;99.90
20712;DHT22;10517;50.742;4.224;2023-07-29T15:18:58;33.20;99.90
20712;DHT22;10517;50.742;4.224;2023-07-29T15:21:23;32.20;99.90
20712;DHT22;10517;50.742;4.224;2023-07-29T15:23:49;31.40;99.90
20712;DHT22;10517;50.742;4.224;2023-07-29T15:26:14;30.60;99.90
20712;DHT22;10517;50.742;4.224;2023-07-29T15:28:40;31.00;99.90
20712;DHT22;10517;50.742;4.224;2023-07-29T15:31:05;31.40;99.90
20712;DHT22;10517;50.742;4.224;2023-07-29T15:33:31;31.60;99.90
20712;DHT22;10517;50.742;4.224;2023-07-29T15:35:59;31.80;99.90
20712;DHT22;10517;50.742;4.224;2023-07-29T15:38:25;32.60;99.90
20712;DHT22;10517;50.742;4.224;2023-07-29T15:40:51;33.80;99.90
20712;DHT22;10517;50.742;4.224;2023-07-29T15:43:17;34.80;99.90
20712;DHT22;10517;50.742;4.224;2023-07-29T15:45:43;36.00;99.90
20712;DHT22;10517;50.742;4.224;2023-07-29T15:48:10;36.40;99.90
20712;DHT22;10517;50.742;4.224;2023-07-29T15:50:35;36.90;99.90
20712;DHT22;10517;50.742;4.224;2023-07-29T15:53:01;36.70;99.90
20712;DHT22;10517;50.742;4.224;2023-07-29T15:55:28;36.30;99.90